sensor_id;sensor_type;location;lat;lon;timestamp;pressure;altitude;pressure_sealevel;temperature;humidity
40872;BME280;26591;43.264;26.940;2023-04-06T00:01:37;98612.56;;;4.43;66.36
40872;BME280;26591;43.264;26.940;2023-04-06T00:04:02;98616.59;;;4.67;65.80
40872;BME280;26591;43.264;26.940;2023-04-06T00:06:28;98614.25;;;4.64;65.68
40872;BME280;26591;43.264;26.940;2023-04-06T00:08:53;98613.41;;;4.44;66.15
40872;BME280;26591;43.264;26.940;2023-04-06T00:11:19;98607.34;;;4.63;66.32
40872;BME280;26591;43.264;26.940;2023-04-06T00:13:45;98610.94;;;4.72;65.99
40872;BME280;26591;43.264;26.940;2023-04-06T00:16:11;98601.72;;;4.48;66.18
40872;BME280;26591;43.264;26.940;2023-04-06T00:18:36;98604.03;;;4.22;67.47
40872;BME280;26591;43.264;26.940;2023-04-06T00:21:02;98595.06;;;4.24;67.41
40872;BME280;26591;43.264;26.940;2023-04-06T00:23:27;98599.19;;;4.07;68.01
40872;BME280;26591;43.264;26.940;2023-04-06T00:25:53;98597.81;;;4.13;67.99
40872;BME280;26591;43.264;26.940;2023-04-06T00:28:18;98598.94;;;4.40;67.79
40872;BME280;26591;43.264;26.940;2023-04-06T00:30:50;98593.53;;;4.51;66.92
40872;BME280;26591;43.264;26.940;2023-04-06T00:33:18;98597.28;;;4.58;66.55
40872;BME280;26591;43.264;26.940;2023-04-06T00:35:43;98586.47;;;3.93;68.22
40872;BME280;26591;43.264;26.940;2023-04-06T00:38:09;98582.59;;;3.87;68.34
40872;BME280;26591;43.264;26.940;2023-04-06T00:40:34;98569.34;;;3.79;68.77
40872;BME280;26591;43.264;26.940;2023-04-06T00:43:19;98559.00;;;3.67;69.21
40872;BME280;26591;43.264;26.940;2023-04-06T00:45:44;98559.63;;;3.50;70.07
40872;BME280;26591;43.264;26.940;2023-04-06T00:48:10;98567.22;;;3.53;69.41
40872;BME280;26591;43.264;26.940;2023-04-06T00:50:35;98555.75;;;3.44;69.63
40872;BME280;26591;43.264;26.940;2023-04-06T00:53:01;98554.34;;;3.40;70.35
40872;BME280;26591;43.264;26.940;2023-04-06T00:55:27;98546.13;;;3.55;70.12
40872;BME280;26591;43.264;26.940;2023-04-06T00:57:54;98545.53;;;3.41;70.44
40872;BME280;26591;43.264;26.940;2023-04-06T01:00:24;98539.59;;;3.39;70.42
40872;BME280;26591;43.264;26.940;2023-04-06T01:02:50;98542.91;;;3.41;70.34
40872;BME280;26591;43.264;26.940;2023-04-06T01:05:15;98542.22;;;3.39;70.45
40872;BME280;26591;43.264;26.940;2023-04-06T01:07:41;98546.66;;;3.39;70.58
40872;BME280;26591;43.264;26.940;2023-04-06T01:10:06;98540.34;;;3.51;70.29
40872;BME280;26591;43.264;26.940;2023-04-06T01:12:32;98543.97;;;3.29;70.90
40872;BME280;26591;43.264;26.940;2023-04-06T01:14:58;98537.41;;;3.34;70.93
40872;BME280;26591;43.264;26.940;2023-04-06T01:17:23;98543.03;;;3.30;70.88
40872;BME280;26591;43.264;26.940;2023-04-06T01:19:49;98538.00;;;3.48;70.55
40872;BME280;26591;43.264;26.940;2023-04-06T01:22:18;98532.34;;;3.43;70.79
40872;BME280;26591;43.264;26.940;2023-04-06T01:24:44;98536.78;;;3.52;70.73
40872;BME280;26591;43.264;26.940;2023-04-06T01:27:10;98538.13;;;3.46;70.67
40872;BME280;26591;43.264;26.940;2023-04-06T01:29:36;98529.47;;;3.56;70.39
40872;BME280;26591;43.264;26.940;2023-04-06T01:32:02;98531.31;;;3.65;69.53
40872;BME280;26591;43.264;26.940;2023-04-06T01:34:28;98531.97;;;3.57;69.80
40872;BME280;26591;43.264;26.940;2023-04-06T01:36:53;98517.94;;;3.58;69.37
40872;BME280;26591;43.264;26.940;2023-04-06T01:39:19;98518.88;;;3.57;69.51
40872;BME280;26591;43.264;26.940;2023-04-06T01:41:44;98518.88;;;3.16;70.28
40872;BME280;26591;43.264;26.940;2023-04-06T01:44:12;98521.28;;;3.29;70.30
40872;BME280;26591;43.264;26.940;2023-04-06T01:46:38;98527.53;;;3.38;70.56
40872;BME280;26591;43.264;26.940;2023-04-06T01:49:03;98525.88;;;3.37;70.11
40872;BME280;26591;43.264;26.940;2023-04-06T01:51:29;98521.59;;;3.36;70.24
40872;BME280;26591;43.264;26.940;2023-04-06T01:53:55;98517.44;;;3.33;70.55
40872;BME280;26591;43.264;26.940;2023-04-06T01:56:29;98523.47;;;3.24;70.33
40872;BME280;26591;43.264;26.940;2023-04-06T01:58:55;98521.16;;;3.31;70.57
40872;BME280;26591;43.264;26.940;2023-04-06T02:01:21;98530.72;;;3.51;70.14
40872;BME280;26591;43.264;26.940;2023-04-06T02:03:47;98526.88;;;3.25;70.79
40872;BME280;26591;43.264;26.940;2023-04-06T02:06:12;98520.47;;;3.39;70.44
40872;BME280;26591;43.264;26.940;2023-04-06T02:08:38;98518.44;;;3.11;71.17
40872;BME280;26591;43.264;26.940;2023-04-06T02:11:03;98526.38;;;3.31;70.86
40872;BME280;26591;43.264;26.940;2023-04-06T02:13:29;98516.28;;;3.16;70.83
40872;BME280;26591;43.264;26.940;2023-04-06T02:15:54;98529.75;;;3.12;71.01
40872;BME280;26591;43.264;26.940;2023-04-06T02:18:20;98535.88;;;3.32;70.47
40872;BME280;26591;43.264;26.940;2023-04-06T02:20:48;98533.22;;;3.22;71.10
40872;BME280;26591;43.264;26.940;2023-04-06T02:23:13;98533.16;;;3.43;70.41
40872;BME280;26591;43.264;26.940;2023-04-06T02:25:40;98521.28;;;3.39;70.64
40872;BME280;26591;43.264;26.940;2023-04-06T02:28:06;98520.34;;;3.30;70.93
40872;BME280;26591;43.264;26.940;2023-04-06T02:30:31;98524.69;;;3.20;71.40
40872;BME280;26591;43.264;26.940;2023-04-06T02:32:59;98515.78;;;3.32;71.00
40872;BME280;26591;43.264;26.940;2023-04-06T02:35:25;98528.94;;;3.21;71.03
40872;BME280;26591;43.264;26.940;2023-04-06T02:37:50;98523.03;;;3.19;71.34
40872;BME280;26591;43.264;26.940;2023-04-06T02:40:22;98521.00;;;3.32;70.90
40872;BME280;26591;43.264;26.940;2023-04-06T02:42:47;98518.00;;;3.37;70.48
40872;BME280;26591;43.264;26.940;2023-04-06T02:45:13;98514.88;;;3.12;70.95
40872;BME280;26591;43.264;26.940;2023-04-06T02:47:38;98521.59;;;3.46;70.00
40872;BME280;26591;43.264;26.940;2023-04-06T02:50:04;98522.53;;;3.35;70.24
40872;BME280;26591;43.264;26.940;2023-04-06T02:52:31;98519.38;;;3.41;70.03
40872;BME280;26591;43.264;26.940;2023-04-06T02:54:57;98533.94;;;3.65;69.25
40872;BME280;26591;43.264;26.940;2023-04-06T02:57:22;98537.03;;;3.49;69.14
40872;BME280;26591;43.264;26.940;2023-04-06T02:59:48;98528.28;;;3.70;68.40
40872;BME280;26591;43.264;26.940;2023-04-06T03:02:13;98528.59;;;3.96;67.85
40872;BME280;26591;43.264;26.940;2023-04-06T03:04:38;98529.56;;;4.05;67.83
40872;BME280;26591;43.264;26.940;2023-04-06T03:07:04;98523.38;;;3.96;67.74
40872;BME280;26591;43.264;26.940;2023-04-06T03:09:30;98514.38;;;3.89;67.93
40872;BME280;26591;43.264;26.940;2023-04-06T03:11:56;98526.66;;;3.98;67.68
40872;BME280;26591;43.264;26.940;2023-04-06T03:14:22;98520.44;;;3.79;67.48
40872;BME280;26591;43.264;26.940;2023-04-06T03:16:48;98530.66;;;3.92;67.37
40872;BME280;26591;43.264;26.940;2023-04-06T03:19:17;98533.97;;;3.94;67.23
40872;BME280;26591;43.264;26.940;2023-04-06T03:21:42;98531.34;;;3.94;66.94
40872;BME280;26591;43.264;26.940;2023-04-06T03:24:08;98528.19;;;3.91;67.21
40872;BME280;26591;43.264;26.940;2023-04-06T03:26:36;98537.03;;;4.09;66.88
40872;BME280;26591;43.264;26.940;2023-04-06T03:29:01;98539.09;;;4.35;65.79
40872;BME280;26591;43.264;26.940;2023-04-06T03:31:27;98531.34;;;4.43;65.64
40872;BME280;26591;43.264;26.940;2023-04-06T03:33:52;98538.69;;;4.10;65.91
40872;BME280;26591;43.264;26.940;2023-04-06T03:36:18;98538.25;;;4.45;65.31
40872;BME280;26591;43.264;26.940;2023-04-06T03:38:43;98535.19;;;4.00;66.06
40872;BME280;26591;43.264;26.940;2023-04-06T03:41:09;98541.56;;;4.37;65.21
40872;BME280;26591;43.264;26.940;2023-04-06T03:43:35;98542.94;;;4.41;65.39
40872;BME280;26591;43.264;26.940;2023-04-06T03:46:01;98542.81;;;4.23;65.74
40872;BME280;26591;43.264;26.940;2023-04-06T03:48:26;98544.88;;;4.00;65.74
40872;BME280;26591;43.264;26.940;2023-04-06T03:50:52;98550.53;;;4.54;67.49
40872;BME280;26591;43.264;26.940;2023-04-06T03:53:17;98554.06;;;4.72;66.79
40872;BME280;26591;43.264;26.940;2023-04-06T03:55:48;98549.84;;;4.52;64.75
40872;BME280;26591;43.264;26.940;2023-04-06T03:58:13;98553.97;;;4.54;64.45
40872;BME280;26591;43.264;26.940;2023-04-06T04:00:39;98550.09;;;4.19;64.70
40872;BME280;26591;43.264;26.940;2023-04-06T04:03:04;98557.69;;;4.03;65.47
40872;BME280;26591;43.264;26.940;2023-04-06T04:05:30;98548.47;;;4.08;65.70
40872;BME280;26591;43.264;26.940;2023-04-06T04:07:55;98554.94;;;4.14;65.23
40872;BME280;26591;43.264;26.940;2023-04-06T04:10:21;98555.34;;;4.29;64.89
40872;BME280;26591;43.264;26.940;2023-04-06T04:12:46;98559.75;;;4.19;65.10
40872;BME280;26591;43.264;26.940;2023-04-06T04:15:12;98560.31;;;4.22;65.38
40872;BME280;26591;43.264;26.940;2023-04-06T04:17:37;98564.59;;;4.33;64.93
40872;BME280;26591;43.264;26.940;2023-04-06T04:20:03;98564.59;;;4.53;67.37
40872;BME280;26591;43.264;26.940;2023-04-06T04:22:29;98565.28;;;4.55;65.33
40872;BME280;26591;43.264;26.940;2023-04-06T04:24:55;98560.75;;;4.37;65.31
40872;BME280;26591;43.264;26.940;2023-04-06T04:27:20;98563.34;;;4.57;64.17
40872;BME280;26591;43.264;26.940;2023-04-06T04:29:46;98565.13;;;4.76;64.45
40872;BME280;26591;43.264;26.940;2023-04-06T04:32:11;98560.28;;;4.71;64.40
40872;BME280;26591;43.264;26.940;2023-04-06T04:34:37;98560.16;;;4.43;64.41
40872;BME280;26591;43.264;26.940;2023-04-06T04:40:08;98561.56;;;4.38;65.32
40872;BME280;26591;43.264;26.940;2023-04-06T04:42:34;98551.06;;;4.57;64.52
40872;BME280;26591;43.264;26.940;2023-04-06T04:45:00;98572.56;;;5.66;71.88
40872;BME280;26591;43.264;26.940;2023-04-06T04:47:28;98561.19;;;6.84;73.13
40872;BME280;26591;43.264;26.940;2023-04-06T04:49:53;98555.31;;;6.46;64.67
40872;BME280;26591;43.264;26.940;2023-04-06T04:52:19;98554.25;;;6.02;61.97
40872;BME280;26591;43.264;26.940;2023-04-06T04:54:45;98559.59;;;6.10;61.68
40872;BME280;26591;43.264;26.940;2023-04-06T04:57:12;98553.97;;;5.77;60.73
40872;BME280;26591;43.264;26.940;2023-04-06T04:59:40;98552.25;;;5.30;62.04
40872;BME280;26591;43.264;26.940;2023-04-06T05:02:05;98551.97;;;5.33;61.43
40872;BME280;26591;43.264;26.940;2023-04-06T05:04:31;98543.75;;;4.71;63.09
40872;BME280;26591;43.264;26.940;2023-04-06T05:07:06;98554.38;;;4.69;63.27
40872;BME280;26591;43.264;26.940;2023-04-06T05:09:32;98540.31;;;4.70;64.27
40872;BME280;26591;43.264;26.940;2023-04-06T05:11:58;98541.81;;;5.21;64.24
40872;BME280;26591;43.264;26.940;2023-04-06T05:14:25;98554.47;;;5.63;62.73
40872;BME280;26591;43.264;26.940;2023-04-06T05:16:51;98554.88;;;6.14;62.00
40872;BME280;26591;43.264;26.940;2023-04-06T05:19:16;98552.25;;;6.14;60.48
40872;BME280;26591;43.264;26.940;2023-04-06T05:21:42;98548.44;;;6.08;60.44
40872;BME280;26591;43.264;26.940;2023-04-06T05:24:07;98543.84;;;6.29;59.79
40872;BME280;26591;43.264;26.940;2023-04-06T05:26:33;98549.75;;;5.67;60.51
40872;BME280;26591;43.264;26.940;2023-04-06T05:28:59;98543.78;;;5.46;61.37
40872;BME280;26591;43.264;26.940;2023-04-06T05:31:25;98552.56;;;5.83;60.81
40872;BME280;26591;43.264;26.940;2023-04-06T05:33:50;98544.16;;;5.52;61.51
40872;BME280;26591;43.264;26.940;2023-04-06T05:36:16;98541.63;;;5.32;61.50
40872;BME280;26591;43.264;26.940;2023-04-06T05:38:41;98533.72;;;5.42;61.97
40872;BME280;26591;43.264;26.940;2023-04-06T05:41:08;98537.53;;;5.75;61.25
40872;BME280;26591;43.264;26.940;2023-04-06T05:43:33;98539.16;;;5.58;61.55
40872;BME280;26591;43.264;26.940;2023-04-06T05:45:59;98536.88;;;5.91;61.01
40872;BME280;26591;43.264;26.940;2023-04-06T05:48:25;98531.59;;;6.19;60.74
40872;BME280;26591;43.264;26.940;2023-04-06T05:50:51;98541.81;;;6.04;60.18
40872;BME280;26591;43.264;26.940;2023-04-06T05:53:19;98530.03;;;6.08;60.14
40872;BME280;26591;43.264;26.940;2023-04-06T05:55:46;98528.59;;;6.14;60.59
40872;BME280;26591;43.264;26.940;2023-04-06T05:58:12;98520.34;;;6.09;60.22
40872;BME280;26591;43.264;26.940;2023-04-06T06:00:38;98518.00;;;6.42;59.94
40872;BME280;26591;43.264;26.940;2023-04-06T06:03:03;98511.56;;;6.36;59.58
40872;BME280;26591;43.264;26.940;2023-04-06T06:05:29;98518.16;;;6.22;59.85
40872;BME280;26591;43.264;26.940;2023-04-06T06:07:55;98520.56;;;6.16;60.31
40872;BME280;26591;43.264;26.940;2023-04-06T06:10:23;98511.69;;;6.35;59.53
40872;BME280;26591;43.264;26.940;2023-04-06T06:12:48;98507.78;;;6.39;59.52
40872;BME280;26591;43.264;26.940;2023-04-06T06:15:14;98507.69;;;6.49;58.95
40872;BME280;26591;43.264;26.940;2023-04-06T06:17:39;98501.09;;;6.45;58.92
40872;BME280;26591;43.264;26.940;2023-04-06T06:20:08;98500.41;;;6.61;58.64
40872;BME280;26591;43.264;26.940;2023-04-06T06:22:34;98501.31;;;6.51;58.88
40872;BME280;26591;43.264;26.940;2023-04-06T06:25:00;98497.66;;;6.44;59.32
40872;BME280;26591;43.264;26.940;2023-04-06T06:27:25;98495.41;;;6.31;59.29
40872;BME280;26591;43.264;26.940;2023-04-06T06:29:53;98500.16;;;6.28;59.83
40872;BME280;26591;43.264;26.940;2023-04-06T06:32:21;98502.03;;;6.17;60.50
40872;BME280;26591;43.264;26.940;2023-04-06T06:34:50;98503.53;;;6.02;60.47
40872;BME280;26591;43.264;26.940;2023-04-06T06:37:15;98509.44;;;6.04;61.01
40872;BME280;26591;43.264;26.940;2023-04-06T06:39:41;98507.72;;;6.13;60.80
40872;BME280;26591;43.264;26.940;2023-04-06T06:42:06;98504.06;;;6.05;60.63
40872;BME280;26591;43.264;26.940;2023-04-06T06:44:32;98494.63;;;5.67;61.30
40872;BME280;26591;43.264;26.940;2023-04-06T06:46:57;98505.19;;;5.75;61.13
40872;BME280;26591;43.264;26.940;2023-04-06T06:49:23;98500.41;;;5.88;60.73
40872;BME280;26591;43.264;26.940;2023-04-06T06:51:48;98497.19;;;5.94;61.36
40872;BME280;26591;43.264;26.940;2023-04-06T06:54:14;98497.81;;;5.60;62.11
40872;BME280;26591;43.264;26.940;2023-04-06T06:56:39;98493.88;;;5.74;61.55
40872;BME280;26591;43.264;26.940;2023-04-06T06:59:05;98503.69;;;5.72;62.32
40872;BME280;26591;43.264;26.940;2023-04-06T07:01:34;98499.06;;;5.84;62.28
40872;BME280;26591;43.264;26.940;2023-04-06T07:04:00;98505.84;;;6.05;61.23
40872;BME280;26591;43.264;26.940;2023-04-06T07:06:25;98499.72;;;6.14;61.07
40872;BME280;26591;43.264;26.940;2023-04-06T07:08:51;98498.88;;;6.32;60.15
40872;BME280;26591;43.264;26.940;2023-04-06T07:11:16;98496.97;;;6.42;60.82
40872;BME280;26591;43.264;26.940;2023-04-06T07:13:42;98489.25;;;6.67;60.24
40872;BME280;26591;43.264;26.940;2023-04-06T07:16:08;98495.47;;;6.66;59.94
40872;BME280;26591;43.264;26.940;2023-04-06T07:18:34;98496.75;;;6.35;59.99
40872;BME280;26591;43.264;26.940;2023-04-06T07:20:59;98501.66;;;6.12;61.24
40872;BME280;26591;43.264;26.940;2023-04-06T07:23:25;98511.75;;;5.89;61.70
40872;BME280;26591;43.264;26.940;2023-04-06T07:25:50;98503.97;;;6.15;61.53
40872;BME280;26591;43.264;26.940;2023-04-06T07:28:17;98508.91;;;6.18;61.76
40872;BME280;26591;43.264;26.940;2023-04-06T07:30:44;98508.47;;;6.05;61.59
40872;BME280;26591;43.264;26.940;2023-04-06T07:33:09;98502.22;;;5.88;62.02
40872;BME280;26591;43.264;26.940;2023-04-06T07:35:57;98502.44;;;5.76;62.27
40872;BME280;26591;43.264;26.940;2023-04-06T07:38:23;98521.47;;;6.06;61.99
40872;BME280;26591;43.264;26.940;2023-04-06T07:40:49;98509.63;;;5.92;62.22
40872;BME280;26591;43.264;26.940;2023-04-06T07:43:16;98504.38;;;5.92;62.21
40872;BME280;26591;43.264;26.940;2023-04-06T07:45:42;98524.59;;;5.92;63.14
40872;BME280;26591;43.264;26.940;2023-04-06T07:48:07;98524.72;;;5.90;62.99
40872;BME280;26591;43.264;26.940;2023-04-06T07:50:33;98522.53;;;5.86;62.64
40872;BME280;26591;43.264;26.940;2023-04-06T07:52:58;98527.84;;;5.76;62.81
40872;BME280;26591;43.264;26.940;2023-04-06T07:55:25;98520.28;;;5.45;63.32
40872;BME280;26591;43.264;26.940;2023-04-06T07:57:50;98514.38;;;5.43;64.37
40872;BME280;26591;43.264;26.940;2023-04-06T08:00:16;98514.91;;;5.46;63.69
40872;BME280;26591;43.264;26.940;2023-04-06T08:02:42;98518.53;;;5.35;64.12
40872;BME280;26591;43.264;26.940;2023-04-06T08:05:08;98514.47;;;5.51;64.11
40872;BME280;26591;43.264;26.940;2023-04-06T08:07:33;98511.19;;;5.67;63.42
40872;BME280;26591;43.264;26.940;2023-04-06T08:09:59;98514.66;;;5.68;63.51
40872;BME280;26591;43.264;26.940;2023-04-06T08:12:25;98512.22;;;6.02;63.46
40872;BME280;26591;43.264;26.940;2023-04-06T08:14:50;98510.78;;;5.90;63.45
40872;BME280;26591;43.264;26.940;2023-04-06T08:17:16;98506.34;;;5.90;62.98
40872;BME280;26591;43.264;26.940;2023-04-06T08:19:44;98513.84;;;5.85;63.58
40872;BME280;26591;43.264;26.940;2023-04-06T08:22:10;98503.53;;;6.02;62.84
40872;BME280;26591;43.264;26.940;2023-04-06T08:24:36;98497.31;;;6.03;63.02
40872;BME280;26591;43.264;26.940;2023-04-06T08:27:01;98502.44;;;5.94;63.61
40872;BME280;26591;43.264;26.940;2023-04-06T08:29:29;98488.84;;;5.99;62.65
40872;BME280;26591;43.264;26.940;2023-04-06T08:31:55;98491.44;;;6.09;63.00
40872;BME280;26591;43.264;26.940;2023-04-06T08:34:21;98492.03;;;6.21;62.62
40872;BME280;26591;43.264;26.940;2023-04-06T08:36:46;98503.88;;;6.43;62.02
40872;BME280;26591;43.264;26.940;2023-04-06T08:39:12;98495.56;;;6.11;62.61
40872;BME280;26591;43.264;26.940;2023-04-06T08:41:38;98497.88;;;6.33;62.07
40872;BME280;26591;43.264;26.940;2023-04-06T08:44:06;98490.31;;;6.30;61.13
40872;BME280;26591;43.264;26.940;2023-04-06T08:46:33;98499.31;;;6.27;61.47
40872;BME280;26591;43.264;26.940;2023-04-06T08:49:00;98491.00;;;6.32;60.97
40872;BME280;26591;43.264;26.940;2023-04-06T08:51:26;98491.75;;;6.24;61.33
40872;BME280;26591;43.264;26.940;2023-04-06T08:53:53;98496.97;;;6.42;61.30
40872;BME280;26591;43.264;26.940;2023-04-06T08:56:25;98502.81;;;6.36;60.50
40872;BME280;26591;43.264;26.940;2023-04-06T08:58:50;98493.66;;;6.40;60.21
40872;BME280;26591;43.264;26.940;2023-04-06T09:01:20;98502.66;;;6.55;61.00
40872;BME280;26591;43.264;26.940;2023-04-06T09:03:46;98497.81;;;6.69;59.99
40872;BME280;26591;43.264;26.940;2023-04-06T09:06:13;98490.28;;;6.74;60.00
40872;BME280;26591;43.264;26.940;2023-04-06T09:08:40;98476.16;;;6.75;59.69
40872;BME280;26591;43.264;26.940;2023-04-06T09:11:07;98503.75;;;6.71;59.69
40872;BME280;26591;43.264;26.940;2023-04-06T09:13:47;98497.31;;;6.65;59.03
40872;BME280;26591;43.264;26.940;2023-04-06T09:16:13;98496.59;;;6.37;60.78
40872;BME280;26591;43.264;26.940;2023-04-06T09:18:54;98514.53;;;6.60;60.00
40872;BME280;26591;43.264;26.940;2023-04-06T09:21:47;98509.59;;;6.65;60.20
40872;BME280;26591;43.264;26.940;2023-04-06T09:24:13;98502.50;;;6.83;59.77
40872;BME280;26591;43.264;26.940;2023-04-06T09:26:47;98509.13;;;6.69;59.62
40872;BME280;26591;43.264;26.940;2023-04-06T09:29:26;98519.16;;;7.18;59.25
40872;BME280;26591;43.264;26.940;2023-04-06T09:31:51;98511.59;;;7.24;58.19
40872;BME280;26591;43.264;26.940;2023-04-06T09:34:23;98506.56;;;7.04;58.99
40872;BME280;26591;43.264;26.940;2023-04-06T09:36:49;98503.09;;;6.77;59.25
40872;BME280;26591;43.264;26.940;2023-04-06T09:39:15;98496.00;;;6.96;59.16
40872;BME280;26591;43.264;26.940;2023-04-06T09:41:40;98501.91;;;7.24;58.81
40872;BME280;26591;43.264;26.940;2023-04-06T09:44:10;98512.53;;;7.57;57.32
40872;BME280;26591;43.264;26.940;2023-04-06T09:46:43;98507.88;;;7.94;56.97
40872;BME280;26591;43.264;26.940;2023-04-06T09:49:12;98503.78;;;8.24;56.30
40872;BME280;26591;43.264;26.940;2023-04-06T09:51:45;98511.03;;;8.39;56.20
40872;BME280;26591;43.264;26.940;2023-04-06T09:54:18;98515.47;;;8.88;54.89
40872;BME280;26591;43.264;26.940;2023-04-06T09:56:47;98516.78;;;8.84;54.94
40872;BME280;26591;43.264;26.940;2023-04-06T09:59:18;98513.75;;;9.12;53.87
40872;BME280;26591;43.264;26.940;2023-04-06T10:01:48;98514.03;;;9.34;53.27
40872;BME280;26591;43.264;26.940;2023-04-06T10:06:51;98507.69;;;9.51;52.96
40872;BME280;26591;43.264;26.940;2023-04-06T10:09:21;98497.56;;;9.23;53.12
40872;BME280;26591;43.264;26.940;2023-04-06T10:11:49;98486.44;;;8.96;53.60
40872;BME280;26591;43.264;26.940;2023-04-06T10:14:15;98495.91;;;8.58;55.27
40872;BME280;26591;43.264;26.940;2023-04-06T10:16:41;98506.41;;;8.82;54.93
40872;BME280;26591;43.264;26.940;2023-04-06T10:19:59;98497.50;;;9.40;53.71
40872;BME280;26591;43.264;26.940;2023-04-06T10:22:41;98495.06;;;9.30;53.73
40872;BME280;26591;43.264;26.940;2023-04-06T10:25:09;98493.50;;;9.04;54.30
40872;BME280;26591;43.264;26.940;2023-04-06T10:27:34;98498.47;;;8.99;54.63
40872;BME280;26591;43.264;26.940;2023-04-06T10:30:02;98490.03;;;9.04;54.17
40872;BME280;26591;43.264;26.940;2023-04-06T10:32:33;98496.00;;;9.37;53.78
40872;BME280;26591;43.264;26.940;2023-04-06T10:35:11;98497.69;;;8.74;55.08
40872;BME280;26591;43.264;26.940;2023-04-06T10:38:01;98493.44;;;8.48;55.14
40872;BME280;26591;43.264;26.940;2023-04-06T10:40:28;98510.69;;;8.83;54.77
40872;BME280;26591;43.264;26.940;2023-04-06T10:42:55;98495.34;;;8.87;54.66
40872;BME280;26591;43.264;26.940;2023-04-06T10:45:22;98500.00;;;8.77;54.43
40872;BME280;26591;43.264;26.940;2023-04-06T10:47:52;98496.47;;;8.93;54.77
40872;BME280;26591;43.264;26.940;2023-04-06T10:50:18;98494.53;;;8.78;54.27
40872;BME280;26591;43.264;26.940;2023-04-06T10:52:45;98480.22;;;8.23;55.52
40872;BME280;26591;43.264;26.940;2023-04-06T10:55:13;98491.56;;;8.32;55.33
40872;BME280;26591;43.264;26.940;2023-04-06T10:57:39;98491.22;;;8.76;55.26
40872;BME280;26591;43.264;26.940;2023-04-06T11:00:08;98497.16;;;8.87;54.28
40872;BME280;26591;43.264;26.940;2023-04-06T11:02:43;98483.53;;;9.23;53.55
40872;BME280;26591;43.264;26.940;2023-04-06T11:05:11;98490.38;;;9.40;53.42
40872;BME280;26591;43.264;26.940;2023-04-06T11:07:39;98485.81;;;9.66;53.00
40872;BME280;26591;43.264;26.940;2023-04-06T11:10:05;98481.41;;;9.50;51.93
40872;BME280;26591;43.264;26.940;2023-04-06T11:12:31;98475.84;;;9.44;52.85
40872;BME280;26591;43.264;26.940;2023-04-06T11:14:58;98485.75;;;9.74;52.44
40872;BME280;26591;43.264;26.940;2023-04-06T11:17:34;98476.31;;;10.03;51.96
40872;BME280;26591;43.264;26.940;2023-04-06T11:20:01;98481.09;;;9.84;52.67
40872;BME280;26591;43.264;26.940;2023-04-06T11:22:28;98471.00;;;10.26;51.72
40872;BME280;26591;43.264;26.940;2023-04-06T11:25:04;98471.84;;;10.50;50.78
40872;BME280;26591;43.264;26.940;2023-04-06T11:27:31;98461.03;;;10.36;50.95
40872;BME280;26591;43.264;26.940;2023-04-06T11:29:59;98459.94;;;10.99;50.52
40872;BME280;26591;43.264;26.940;2023-04-06T11:32:25;98456.19;;;11.23;49.13
40872;BME280;26591;43.264;26.940;2023-04-06T11:34:50;98459.28;;;10.97;50.24
40872;BME280;26591;43.264;26.940;2023-04-06T11:37:16;98452.81;;;11.14;49.67
40872;BME280;26591;43.264;26.940;2023-04-06T11:39:53;98450.34;;;10.98;49.58
40872;BME280;26591;43.264;26.940;2023-04-06T11:42:29;98455.06;;;10.58;49.89
40872;BME280;26591;43.264;26.940;2023-04-06T11:44:58;98447.06;;;10.96;49.80
40872;BME280;26591;43.264;26.940;2023-04-06T11:47:37;98450.59;;;11.03;49.57
40872;BME280;26591;43.264;26.940;2023-04-06T11:50:08;98458.06;;;11.44;49.01
40872;BME280;26591;43.264;26.940;2023-04-06T11:52:34;98455.44;;;11.66;48.49
40872;BME280;26591;43.264;26.940;2023-04-06T11:55:16;98447.50;;;11.14;49.02
40872;BME280;26591;43.264;26.940;2023-04-06T11:57:44;98446.78;;;11.06;49.47
40872;BME280;26591;43.264;26.940;2023-04-06T12:00:11;98443.47;;;11.34;48.85
40872;BME280;26591;43.264;26.940;2023-04-06T12:02:38;98444.69;;;10.86;49.40
40872;BME280;26591;43.264;26.940;2023-04-06T12:05:05;98444.38;;;11.11;49.06
40872;BME280;26591;43.264;26.940;2023-04-06T12:07:31;98443.25;;;11.35;49.75
40872;BME280;26591;43.264;26.940;2023-04-06T12:09:58;98437.81;;;11.58;47.54
40872;BME280;26591;43.264;26.940;2023-04-06T12:12:24;98432.81;;;11.49;48.13
40872;BME280;26591;43.264;26.940;2023-04-06T12:14:52;98440.25;;;11.38;48.51
40872;BME280;26591;43.264;26.940;2023-04-06T12:17:19;98437.66;;;11.60;47.98
40872;BME280;26591;43.264;26.940;2023-04-06T12:19:44;98435.34;;;11.20;48.56
40872;BME280;26591;43.264;26.940;2023-04-06T12:22:10;98431.13;;;11.26;48.92
40872;BME280;26591;43.264;26.940;2023-04-06T12:24:35;98431.91;;;11.78;47.53
40872;BME280;26591;43.264;26.940;2023-04-06T12:27:01;98435.50;;;11.70;47.49
40872;BME280;26591;43.264;26.940;2023-04-06T12:29:26;98423.56;;;11.59;47.86
40872;BME280;26591;43.264;26.940;2023-04-06T12:31:54;98428.50;;;11.63;47.19
40872;BME280;26591;43.264;26.940;2023-04-06T12:34:20;98430.59;;;11.89;47.50
40872;BME280;26591;43.264;26.940;2023-04-06T12:36:58;98432.63;;;12.65;46.01
40872;BME280;26591;43.264;26.940;2023-04-06T12:39:23;98430.44;;;12.41;46.04
40872;BME280;26591;43.264;26.940;2023-04-06T12:41:58;98428.84;;;12.75;45.22
40872;BME280;26591;43.264;26.940;2023-04-06T12:44:24;98419.09;;;12.89;44.84
40872;BME280;26591;43.264;26.940;2023-04-06T12:46:51;98430.19;;;12.64;45.02
40872;BME280;26591;43.264;26.940;2023-04-06T12:49:17;98423.34;;;12.48;44.99
40872;BME280;26591;43.264;26.940;2023-04-06T12:51:44;98425.38;;;12.46;44.78
40872;BME280;26591;43.264;26.940;2023-04-06T12:54:10;98422.56;;;12.54;45.47
40872;BME280;26591;43.264;26.940;2023-04-06T12:56:37;98423.72;;;12.16;45.09
40872;BME280;26591;43.264;26.940;2023-04-06T12:59:05;98427.47;;;12.00;45.74
40872;BME280;26591;43.264;26.940;2023-04-06T13:01:31;98423.72;;;12.16;45.58
40872;BME280;26591;43.264;26.940;2023-04-06T13:03:57;98425.66;;;12.08;45.80
40872;BME280;26591;43.264;26.940;2023-04-06T13:06:24;98435.97;;;12.17;45.30